Mission Hill, Massachusetts
Current Conditions -  °F | °C
As of 6:54 AM on Thursday 29 Jan 2015 (Local Time) from KBOS Reporting Station
Few Clouds Few Clouds  
Wind Chill: 14°   Ceiling: Unl
Heat Index: 14°   Visibility: 10mi
Dew Point: -1°   Wind: 0mph
Humidity: 52%   Direction: NA
Pressure: 30.3"   Gusts: NA
Location:  42.3325°N, 71.0965°W
Report Text: KBOS 291154Z 00000KT 10SM FEW250 M10/M18 A3030 RMK AO2 SLP260 T11001183 11089 21106 51006 $
Loading
Personal Weather Stations






























Interactive Weather Map New forecast layout! Learn more

10-Day Weather Forecast

Advertisements
Track Severe Weather on mobile